Bookmark and Share
Track history (hours):
 

Westgate

Last reported at 2012-Jun-03 11:28 UTC. Time now 2014-Apr-21 15:21 UTC.
Position N 34°25' E 021°40'.
Warning: this ship's position is years out of date!

Length 169 m; draft 9.9 m.

Type: Ship. MMSI: 235084865.

NotesDate/timePositionNaut miles runAvg speedWind from/ knotsBaromVisibWave heightAir tempDewpointWater temp
2012-Jun-03 11:28N 34°25' E 021°40'1112.9
2012-Jun-03 10:35N 34°28' E 021°27'1312.9
2012-Jun-03 09:33N 34°32' E 021°11'1312.9
2012-Jun-03 08:33N 34°35' E 020°56'2712.7
2012-Jun-03 06:24N 34°43' E 020°25'1112.7
2012-Jun-03 05:33N 34°46' E 020°12'1212.8
2012-Jun-03 04:36N 34°50' E 019°58'5413.0
2012-Jun-03 00:28N 35°06' E 018°55'40113.0
2012-Jun-01 17:31N 37°23' E 011°07'41112.8
2012-May-31 09:23N 36°57' E 002°33'30112.6
2012-May-30 09:33N 36°09' W 003°36'1313.5
2012-May-30 08:33N 36°06' W 003°52'1414.1
2012-May-30 07:34N 36°06' W 004°10'1414.0
2012-May-30 06:33N 36°04' W 004°27'1414.0
2012-May-30 05:33N 36°03' W 004°44'1313.5
2012-May-30 04:35N 36°01' W 005°00'1514.5
2012-May-30 03:33N 35°60' W 005°19'8 3.7
2012-May-30 01:29N 36°07' W 005°21'0 0.0
2012-May-30 00:32N 36°07' W 005°21'0 0.1
2012-May-29 23:32N 36°07' W 005°21'0 0.0
2012-May-29 22:29N 36°07' W 005°21'0 0.1
2012-May-29 21:32N 36°07' W 005°21'0 0.2
2012-May-29 20:32N 36°07' W 005°21'0 0.2
2012-May-29 19:29N 36°07' W 005°21'0 0.1
2012-May-29 18:32N 36°07' W 005°22'0 0.1
2012-May-29 17:32N 36°07' W 005°22'0 0.1
2012-May-29 16:32N 36°07' W 005°21'1 1.4
2012-May-29 15:33N 36°05' W 005°22'8 8.1
2012-May-29 14:33N 36°07' W 005°12'1111.0
2012-May-29 13:33N 36°13' W 005°01'4 3.7
2012-May-29 12:30N 36°17' W 004°58'0 0.1
2012-May-29 10:30N 36°17' W 004°59'0 0.4
2012-May-29 09:27N 36°16' W 004°59'2 2.7
2012-May-29 08:32N 36°15' W 005°02'4 3.6
2012-May-29 07:24N 36°15' W 005°07'0 0.5
2012-May-29 06:29N 36°15' W 005°06'1 0.6
2012-May-29 05:33N 36°15' W 005°05'1 0.5
2012-May-29 03:33N 36°15' W 005°04'0 0.2
2012-May-29 02:33N 36°15' W 005°04'0 0.2
2012-May-29 01:29N 36°15' W 005°04'0 0.1
2012-May-28 23:32N 36°15' W 005°04'0 0.1
2012-May-28 22:33N 36°14' W 005°04'0 0.4
2012-May-28 21:33N 36°14' W 005°04'5 1.6
2012-May-28 18:32N 36°13' W 005°10'1 0.7
2012-May-28 17:29N 36°14' W 005°10'1 0.6
2012-May-28 15:32N 36°13' W 005°11'6 6.3
2012-May-28 14:33N 36°07' W 005°12'1 0.6
2012-May-28 13:24N 36°07' W 005°11'0 0.4
2012-May-28 12:34N 36°07' W 005°10'1 0.6
2012-May-28 11:33N 36°07' W 005°10'5 4.9
2012-May-28 10:35N 36°05' W 005°15'1312.5
2012-May-28 09:33N 35°58' W 005°28'1413.9
2012-May-28 08:33N 35°55' W 005°45'  

Dump ship's entire track history

sailing weather and tide predictions

Westgate — 2EGJ4 — position and weather